Lynchburg, Virginia
Current Conditions -  °F | °C
As of 7:54 PM on Wednesday 22 Oct 2014 (Local Time) from KLYH Reporting Station
Clear Clear  
Wind Chill: 54°   Ceiling: Unl
Heat Index: 54°   Visibility: 10mi
Dew Point: 40°   Wind: 6mph
Humidity: 59%   Direction: NA
Pressure: 30.02"   Gusts: NA
Location:  37.4°N, 79.15°W
Report Text: KLYH 222354Z VRB05KT 10SM CLR 12/04 A3002 RMK AO2 SLP163 T01220044 10172 20117 51005
Loading
Personal Weather Stations






























Interactive Weather Map New forecast layout! Learn more

10-Day Weather Forecast

Advertisements
Track Severe Weather on mobile